createdAt,value
2018-03-17T00:01:17.467Z,6.03
2018-03-17T00:03:46.115Z,6.10
2018-03-17T00:06:15.532Z,5.68
2018-03-17T00:08:44.221Z,6.35
2018-03-17T00:11:12.784Z,5.80
2018-03-17T00:13:42.281Z,5.70
2018-03-17T00:16:10.339Z,5.30
2018-03-17T00:18:38.983Z,5.05
2018-03-17T00:21:08.254Z,6.33
2018-03-17T00:23:36.626Z,6.35
2018-03-17T00:26:05.622Z,6.40
2018-03-17T00:28:34.020Z,5.73
2018-03-17T00:31:02.432Z,6.17
2018-03-17T00:33:31.572Z,6.63
2018-03-17T00:36:00.238Z,6.20
2018-03-17T00:38:28.896Z,5.85
2018-03-17T00:40:58.146Z,6.30
2018-03-17T00:43:26.603Z,5.53
2018-03-17T00:45:56.040Z,6.25
2018-03-17T00:48:24.666Z,5.57
2018-03-17T00:50:53.258Z,6.37
2018-03-17T00:53:21.630Z,5.20
2018-03-17T00:55:49.999Z,5.67
2018-03-17T00:58:18.435Z,6.20
2018-03-17T01:00:46.809Z,5.60
2018-03-17T01:03:14.857Z,5.80
2018-03-17T01:05:44.267Z,6.12
2018-03-17T01:08:13.677Z,5.97
2018-03-17T01:10:42.065Z,6.90
2018-03-17T01:13:10.539Z,6.47
2018-03-17T01:15:39.245Z,6.17
2018-03-17T01:18:07.630Z,6.47
2018-03-17T01:20:36.267Z,5.75
2018-03-17T01:23:04.742Z,5.90
2018-03-17T01:25:33.161Z,5.67
2018-03-17T01:28:01.698Z,5.63
2018-03-17T01:30:30.070Z,5.90
2018-03-17T01:32:58.766Z,6.57
2018-03-17T01:35:27.353Z,5.87
2018-03-17T01:37:55.729Z,5.83
2018-03-17T01:40:24.938Z,5.70
2018-03-17T01:42:53.322Z,6.83
2018-03-17T01:45:21.702Z,7.20
2018-03-17T01:47:50.768Z,6.70
2018-03-17T01:50:20.106Z,6.43
2018-03-17T01:52:48.774Z,5.97
2018-03-17T01:55:17.860Z,5.97
2018-03-17T01:57:46.234Z,5.97
2018-03-17T02:00:15.851Z,5.73
2018-03-17T02:02:44.530Z,5.78
2018-03-17T02:05:13.220Z,6.30
2018-03-17T02:07:41.874Z,6.60
2018-03-17T02:10:10.449Z,6.10
2018-03-17T02:12:39.789Z,6.07
2018-03-17T02:15:08.166Z,6.43
2018-03-17T02:17:36.869Z,6.00
2018-03-17T02:20:05.730Z,6.63
2018-03-17T02:22:34.434Z,6.65
2018-03-17T02:25:03.118Z,6.70
2018-03-17T02:27:31.504Z,6.00
2018-03-17T02:30:00.995Z,5.37
2018-03-17T02:32:29.574Z,4.80
2018-03-17T02:34:57.962Z,5.80
2018-03-17T02:37:26.333Z,5.90
2018-03-17T02:39:54.942Z,5.67
2018-03-17T02:42:23.619Z,5.83
2018-03-17T02:44:52.282Z,5.70
2018-03-17T02:47:20.917Z,5.18
2018-03-17T02:49:49.578Z,4.97
2018-03-17T02:52:18.023Z,6.40
2018-03-17T02:54:47.226Z,6.37
2018-03-17T02:57:15.692Z,5.70
2018-03-17T02:59:45.102Z,6.10
2018-03-17T03:02:13.873Z,5.62
2018-03-17T03:04:43.291Z,6.13
2018-03-17T03:07:11.990Z,5.43
2018-03-17T03:09:40.361Z,6.07
2018-03-17T03:12:08.857Z,6.40
2018-03-17T03:14:37.235Z,5.73
2018-03-17T03:17:06.429Z,7.03
2018-03-17T03:19:35.177Z,5.37
2018-03-17T03:22:03.875Z,4.87
2018-03-17T03:24:32.256Z,6.90
2018-03-17T03:27:00.939Z,5.43
2018-03-17T03:29:29.554Z,5.83
2018-03-17T03:31:57.944Z,5.47
2018-03-17T03:34:26.586Z,5.05
2018-03-17T03:36:55.998Z,6.53
2018-03-17T03:39:24.606Z,5.60
2018-03-17T03:41:53.242Z,5.90
2018-03-17T03:44:21.752Z,6.67
2018-03-17T03:46:50.138Z,5.53
2018-03-17T03:49:18.556Z,6.10
2018-03-17T03:51:47.534Z,5.60
2018-03-17T03:54:15.986Z,5.27
2018-03-17T03:56:44.426Z,6.27
2018-03-17T03:59:12.813Z,5.97
2018-03-17T04:01:41.199Z,6.03
2018-03-17T04:04:10.662Z,5.40
2018-03-17T04:06:39.001Z,4.90
2018-03-17T04:09:07.407Z,4.90
2018-03-17T04:11:36.550Z,4.70
2018-03-17T04:14:05.974Z,5.50
2018-03-17T04:16:34.311Z,5.83
2018-03-17T04:19:02.895Z,5.50
2018-03-17T04:21:31.093Z,5.60
2018-03-17T04:23:59.466Z,5.70
2018-03-17T04:26:28.757Z,5.77
2018-03-17T04:28:57.143Z,6.33
2018-03-17T04:31:25.553Z,5.43
2018-03-17T04:33:53.991Z,5.50
2018-03-17T04:36:22.494Z,5.90
2018-03-17T04:38:50.538Z,6.40
2018-03-17T04:41:20.106Z,5.43
2018-03-17T04:43:49.255Z,6.07
2018-03-17T04:46:17.904Z,5.57
2018-03-17T04:48:46.546Z,5.82
2018-03-17T04:51:14.946Z,5.60
2018-03-17T04:53:44.176Z,5.33
2018-03-17T04:56:12.810Z,6.47
2018-03-17T04:58:41.178Z,6.20
2018-03-17T05:01:10.558Z,5.40
2018-03-17T05:03:38.737Z,6.33
2018-03-17T05:06:07.439Z,5.77
2018-03-17T05:08:35.878Z,6.70
2018-03-17T05:11:04.962Z,5.28
2018-03-17T05:13:33.357Z,6.67
2018-03-17T05:16:02.570Z,6.63
2018-03-17T05:18:30.962Z,6.63
2018-03-17T05:20:59.621Z,6.65
2018-03-17T05:23:28.003Z,6.97
2018-03-17T05:25:56.671Z,7.07
2018-03-17T05:28:25.049Z,6.13
2018-03-17T05:30:53.431Z,7.03
2018-03-17T05:33:22.837Z,6.83
2018-03-17T05:35:52.259Z,7.47
2018-03-17T05:38:20.564Z,7.27
2018-03-17T05:40:49.186Z,7.03
2018-03-17T05:43:17.823Z,6.93
2018-03-17T05:45:46.483Z,6.87
2018-03-17T05:48:14.871Z,8.90
2018-03-17T05:50:43.530Z,9.80
2018-03-17T05:53:11.918Z,12.70
2018-03-17T05:55:40.296Z,13.77
2018-03-17T05:58:08.891Z,15.10
2018-03-17T06:00:37.430Z,14.17
2018-03-17T06:03:06.099Z,17.60
2018-03-17T06:05:34.762Z,18.02
2018-03-17T06:08:04.250Z,17.70
2018-03-17T06:10:33.730Z,17.15
2018-03-17T06:13:02.406Z,16.50
2018-03-17T06:15:47.454Z,17.13
2018-03-17T06:18:15.947Z,17.00
2018-03-17T06:20:45.184Z,16.80
2018-03-17T06:23:13.778Z,15.83
2018-03-17T06:25:42.168Z,16.43
2018-03-17T06:28:10.602Z,14.60
2018-03-17T06:30:39.254Z,13.88
2018-03-17T06:33:07.818Z,13.40
2018-03-17T06:35:36.990Z,14.80
2018-03-17T06:38:05.602Z,14.37
2018-03-17T06:40:34.067Z,13.67
2018-03-17T06:43:02.850Z,13.20
2018-03-17T06:45:31.586Z,14.93
2018-03-17T06:48:01.196Z,14.10
2018-03-17T06:50:29.613Z,14.83
2018-03-17T06:52:58.249Z,16.80
2018-03-17T06:55:27.138Z,17.37
2018-03-17T06:57:55.573Z,18.83
2018-03-17T07:00:23.969Z,17.07
2018-03-17T07:02:53.667Z,18.27
2018-03-17T07:05:23.694Z,17.45
2018-03-17T07:07:53.363Z,17.93
2018-03-17T07:10:21.780Z,18.37
2018-03-17T07:12:51.917Z,18.40
2018-03-17T07:15:20.209Z,18.67
2018-03-17T07:17:48.647Z,18.20
2018-03-17T07:20:17.223Z,18.62
2018-03-17T07:22:46.128Z,18.05
2018-03-17T07:25:16.061Z,18.95
2018-03-17T07:27:52.881Z,20.10
2018-03-17T07:30:22.547Z,18.47
2018-03-17T07:32:53.984Z,20.43
2018-03-17T07:35:22.650Z,23.57
2018-03-17T07:37:51.807Z,23.17
2018-03-17T07:40:20.513Z,22.60
2018-03-17T07:42:49.273Z,23.23
2018-03-17T07:45:18.820Z,23.05
2018-03-17T07:47:47.751Z,21.75
2018-03-17T07:50:16.465Z,21.73
2018-03-17T07:52:45.501Z,21.35
2018-03-17T07:55:14.823Z,20.40
2018-03-17T07:57:43.250Z,21.13
2018-03-17T08:00:11.927Z,21.37
2018-03-17T08:02:40.315Z,21.93
2018-03-17T08:05:08.859Z,21.93
2018-03-17T08:07:37.635Z,22.57
2018-03-17T08:10:05.697Z,21.43
2018-03-17T08:12:34.185Z,20.83
2018-03-17T08:15:03.321Z,21.50
2018-03-17T08:17:32.075Z,19.77
2018-03-17T08:20:01.027Z,19.20
2018-03-17T08:22:29.748Z,19.60
2018-03-17T08:24:59.186Z,20.55
2018-03-17T08:27:28.031Z,19.60
2018-03-17T08:29:57.673Z,20.90
2018-03-17T08:32:27.117Z,22.97
2018-03-17T08:34:56.606Z,23.10
2018-03-17T08:37:25.070Z,22.63
2018-03-17T08:39:53.823Z,22.60
2018-03-17T08:42:22.364Z,21.80
2018-03-17T08:44:55.096Z,21.77
2018-03-17T08:47:24.149Z,21.63
2018-03-17T08:49:53.441Z,22.00
2018-03-17T08:52:22.705Z,20.27
2018-03-17T08:54:51.355Z,21.07
2018-03-17T08:57:20.955Z,20.13
2018-03-17T08:59:49.227Z,21.90
2018-03-17T09:02:18.372Z,20.52
2018-03-17T09:04:46.770Z,20.47
2018-03-17T09:07:15.933Z,21.77
2018-03-17T09:09:44.777Z,20.20
2018-03-17T09:12:14.213Z,21.83
2018-03-17T09:14:42.882Z,19.65
2018-03-17T09:17:12.189Z,22.02
2018-03-17T09:19:41.167Z,21.27
2018-03-17T09:22:09.449Z,19.60
2018-03-17T09:24:38.431Z,20.27
2018-03-17T09:27:07.877Z,19.65
2018-03-17T09:29:36.494Z,19.20
2018-03-17T09:32:04.779Z,20.40
2018-03-17T09:34:33.180Z,20.90
2018-03-17T09:37:01.917Z,19.50
2018-03-17T09:39:30.577Z,19.90
2018-03-17T09:41:59.059Z,20.92
2018-03-17T09:44:27.763Z,21.63
2018-03-17T09:46:56.743Z,20.47
2018-03-17T09:49:25.399Z,20.63
2018-03-17T09:51:53.869Z,22.30
2018-03-17T09:54:22.390Z,22.63
2018-03-17T09:56:54.923Z,23.07
2018-03-17T09:59:23.316Z,24.40
2018-03-17T10:01:51.717Z,25.83
2018-03-17T10:04:20.091Z,21.57
2018-03-17T10:06:48.752Z,27.40
2018-03-17T10:09:17.159Z,27.10
2018-03-17T10:11:45.550Z,26.03
2018-03-17T10:14:14.190Z,27.57
2018-03-17T10:16:42.710Z,29.60
2018-03-17T10:19:11.402Z,26.85
2018-03-17T10:21:40.173Z,28.98
2018-03-17T10:24:10.120Z,29.50
2018-03-17T10:26:38.496Z,29.10
2018-03-17T10:29:07.278Z,29.08
2018-03-17T10:31:35.946Z,30.50
2018-03-17T10:34:04.068Z,30.23
2018-03-17T10:36:32.862Z,28.13
2018-03-17T10:39:01.538Z,30.70
2018-03-17T10:41:30.154Z,30.77
2018-03-17T10:43:59.196Z,30.05
2018-03-17T10:46:28.078Z,30.90
2018-03-17T10:48:56.687Z,32.63
2018-03-17T10:51:25.931Z,33.47
2018-03-17T10:53:54.494Z,30.83
2018-03-17T10:56:23.151Z,30.67
2018-03-17T10:58:52.423Z,33.40
2018-03-17T11:01:21.381Z,31.37
2018-03-17T11:03:50.177Z,31.70
2018-03-17T11:06:18.377Z,31.50
2018-03-17T11:08:47.001Z,31.00
2018-03-17T11:11:15.514Z,29.58
2018-03-17T11:13:44.281Z,31.60
2018-03-17T11:16:12.675Z,30.93
2018-03-17T11:18:41.375Z,32.20
2018-03-17T11:21:10.049Z,30.45
2018-03-17T11:23:38.442Z,30.47
2018-03-17T11:26:07.815Z,31.30
2018-03-17T11:28:36.216Z,32.13
2018-03-17T11:31:05.134Z,31.57
2018-03-17T11:33:33.626Z,31.73
2018-03-17T11:36:02.354Z,32.00
2018-03-17T11:38:31.018Z,31.50
2018-03-17T11:40:59.402Z,34.47
2018-03-17T11:43:27.788Z,31.60
2018-03-17T11:45:56.485Z,32.97
2018-03-17T11:48:24.858Z,29.73
2018-03-17T11:50:53.243Z,29.87
2018-03-17T11:53:21.914Z,31.45
2018-03-17T11:55:50.634Z,30.53
2018-03-17T11:58:19.413Z,28.38
2018-03-17T12:00:47.930Z,28.30
2018-03-17T12:03:17.376Z,28.70
2018-03-17T12:05:45.776Z,29.13
2018-03-17T12:08:14.437Z,26.70
2018-03-17T12:10:43.100Z,28.00
2018-03-17T12:13:11.570Z,27.87
2018-03-17T12:15:40.323Z,25.97
2018-03-17T12:18:08.929Z,28.37
2018-03-17T12:20:38.376Z,28.27
2018-03-17T12:23:06.854Z,28.37
2018-03-17T12:25:35.331Z,25.50
2018-03-17T12:28:03.725Z,28.47
2018-03-17T12:30:32.375Z,26.77
2018-03-17T12:33:01.075Z,27.37
2018-03-17T12:35:30.347Z,29.10
2018-03-17T12:37:59.093Z,29.90
2018-03-17T12:40:27.678Z,27.93
2018-03-17T12:42:58.064Z,30.17
2018-03-17T12:45:26.727Z,31.48
2018-03-17T12:47:55.263Z,28.87
2018-03-17T12:50:24.419Z,30.37
2018-03-17T12:52:53.094Z,28.30
2018-03-17T12:55:21.753Z,31.30
2018-03-17T12:57:51.098Z,29.33
2018-03-17T13:00:19.478Z,30.03
2018-03-17T13:02:47.940Z,29.30
2018-03-17T13:05:16.092Z,30.00
2018-03-17T13:07:44.544Z,29.17
2018-03-17T13:10:14.130Z,28.50
2018-03-17T13:12:42.765Z,28.43
2018-03-17T13:15:11.266Z,25.87
2018-03-17T13:17:40.094Z,25.80
2018-03-17T13:20:08.563Z,29.20
2018-03-17T13:22:48.457Z,26.02
2018-03-17T13:25:16.689Z,26.10
2018-03-17T13:27:56.524Z,26.77
2018-03-17T13:30:25.689Z,26.40
2018-03-17T13:32:59.857Z,26.37
2018-03-17T13:35:39.381Z,24.70
2018-03-17T13:38:07.843Z,24.20
2018-03-17T13:40:43.090Z,21.60
2018-03-17T13:43:11.980Z,23.60
2018-03-17T13:45:40.405Z,23.50
2018-03-17T13:48:08.961Z,21.77
2018-03-17T13:50:37.691Z,23.00
2018-03-17T13:53:05.804Z,21.77
2018-03-17T13:55:34.203Z,23.77
2018-03-17T13:58:02.695Z,23.10
2018-03-17T14:00:31.397Z,22.10
2018-03-17T14:02:59.791Z,23.47
2018-03-17T14:05:28.266Z,22.80
2018-03-17T14:07:57.038Z,21.60
2018-03-17T14:10:26.678Z,23.08
2018-03-17T14:12:55.224Z,23.10
2018-03-17T14:15:24.680Z,21.42
2018-03-17T14:17:54.150Z,20.60
2018-03-17T14:20:22.565Z,21.67
2018-03-17T14:22:51.399Z,21.60
2018-03-17T14:25:20.136Z,22.20
2018-03-17T14:27:48.802Z,23.40
2018-03-17T14:30:17.568Z,19.97
2018-03-17T14:32:47.252Z,23.48
2018-03-17T14:35:16.703Z,22.13
2018-03-17T14:37:45.309Z,20.57
2018-03-17T14:40:14.088Z,21.40
2018-03-17T14:42:42.738Z,22.80
2018-03-17T14:45:11.416Z,21.53
2018-03-17T14:47:40.840Z,22.50
2018-03-17T14:50:09.226Z,20.73
2018-03-17T14:52:38.075Z,21.90
2018-03-17T14:55:06.474Z,20.37
2018-03-17T14:57:34.978Z,22.57
2018-03-17T15:00:03.309Z,22.10
2018-03-17T15:02:31.722Z,21.17
2018-03-17T15:05:00.390Z,19.52
2018-03-17T15:07:29.306Z,19.87
2018-03-17T15:09:57.757Z,19.67
2018-03-17T15:12:27.409Z,21.87
2018-03-17T15:14:56.569Z,20.57
2018-03-17T15:17:25.082Z,19.43
2018-03-17T15:19:54.254Z,20.73
2018-03-17T15:22:23.532Z,20.25
2018-03-17T15:24:52.017Z,18.30
2018-03-17T15:27:20.481Z,20.90
2018-03-17T15:29:48.869Z,18.07
2018-03-17T15:32:17.365Z,19.13
2018-03-17T15:34:46.171Z,20.00
2018-03-17T15:37:14.959Z,20.27
2018-03-17T15:39:43.451Z,19.87
2018-03-17T15:42:12.111Z,19.20
2018-03-17T15:44:40.833Z,17.83
2018-03-17T15:47:09.663Z,18.80
2018-03-17T15:49:38.390Z,18.77
2018-03-17T15:52:07.015Z,20.37
2018-03-17T15:54:35.611Z,18.70
2018-03-17T15:57:03.939Z,20.13
2018-03-17T15:59:32.356Z,18.60
2018-03-17T16:02:01.115Z,18.90
2018-03-17T16:04:29.735Z,18.83
2018-03-17T16:06:58.205Z,19.40
2018-03-17T16:09:27.658Z,17.77
2018-03-17T16:11:56.040Z,18.13
2018-03-17T16:14:25.466Z,17.75
2018-03-17T16:16:54.014Z,17.23
2018-03-17T16:19:22.522Z,18.00
2018-03-17T16:21:50.910Z,18.43
2018-03-17T16:24:19.308Z,18.63
2018-03-17T16:26:48.026Z,19.37
2018-03-17T16:29:16.461Z,20.83
2018-03-17T16:31:44.896Z,17.10
2018-03-17T16:34:13.330Z,17.80
2018-03-17T16:36:42.767Z,18.27
2018-03-17T16:39:11.004Z,17.83
2018-03-17T16:41:39.428Z,17.20
2018-03-17T16:44:07.920Z,17.33
2018-03-17T16:46:36.143Z,19.05
2018-03-17T16:49:04.735Z,18.63
2018-03-17T16:51:33.131Z,16.60
2018-03-17T16:54:01.465Z,17.23
2018-03-17T16:56:30.553Z,18.53
2018-03-17T16:58:59.218Z,20.90
2018-03-17T17:01:27.925Z,18.90
2018-03-17T17:03:56.305Z,21.77
2018-03-17T17:06:24.717Z,20.53
2018-03-17T17:08:53.110Z,18.13
2018-03-17T17:11:21.816Z,20.23
2018-03-17T17:13:50.724Z,19.23
2018-03-17T17:16:19.491Z,17.50
2018-03-17T17:18:49.243Z,18.67
2018-03-17T17:21:17.669Z,19.23
2018-03-17T17:23:46.237Z,18.97
2018-03-17T17:26:14.945Z,19.55
2018-03-17T17:28:43.441Z,19.20
2018-03-17T17:31:12.122Z,21.08
2018-03-17T17:33:40.703Z,20.00
2018-03-17T17:36:09.596Z,20.40
2018-03-17T17:38:38.146Z,18.07
2018-03-17T17:41:06.813Z,18.33
2018-03-17T17:43:35.416Z,17.60
2018-03-17T17:46:03.887Z,19.50
2018-03-17T17:48:32.562Z,18.87
2018-03-17T17:51:01.228Z,19.40
2018-03-17T17:53:29.770Z,19.30
2018-03-17T17:55:58.309Z,17.70
2018-03-17T17:58:26.726Z,18.40
2018-03-17T18:00:56.176Z,19.27
2018-03-17T18:03:24.653Z,19.70
2018-03-17T18:05:54.878Z,19.95
2018-03-17T18:08:24.386Z,18.40
2018-03-17T18:10:53.057Z,19.10
2018-03-17T18:13:22.900Z,19.83
2018-03-17T18:15:51.589Z,18.37
2018-03-17T18:18:19.988Z,18.03
2018-03-17T18:20:49.542Z,18.43
2018-03-17T18:23:18.991Z,18.63
2018-03-17T18:25:47.705Z,19.73
2018-03-17T18:28:16.378Z,19.23
2018-03-17T18:30:44.594Z,20.07
2018-03-17T18:33:14.664Z,18.90
2018-03-17T18:35:43.592Z,20.07
2018-03-17T18:38:13.212Z,20.13
2018-03-17T18:40:41.610Z,20.73
2018-03-17T18:43:10.060Z,21.60
2018-03-17T18:45:38.438Z,20.50
2018-03-17T18:48:07.891Z,19.75
2018-03-17T18:50:36.516Z,20.20
2018-03-17T18:53:05.029Z,21.27
2018-03-17T18:55:33.829Z,21.17
2018-03-17T18:58:02.585Z,20.20
2018-03-17T19:00:31.009Z,21.23
2018-03-17T19:03:02.818Z,21.20
2018-03-17T19:05:31.549Z,20.73
2018-03-17T19:08:01.458Z,22.40
2018-03-17T19:10:30.512Z,21.80
2018-03-17T19:12:59.049Z,19.33
2018-03-17T19:15:28.237Z,20.90
2018-03-17T19:17:57.718Z,19.25
2018-03-17T19:20:26.183Z,20.80
2018-03-17T19:22:55.801Z,21.50
2018-03-17T19:25:24.495Z,19.90
2018-03-17T19:27:52.910Z,19.93
2018-03-17T19:30:22.074Z,21.20
2018-03-17T19:32:50.465Z,19.50
2018-03-17T19:35:19.568Z,20.40
2018-03-17T19:37:49.053Z,22.20
2018-03-17T19:40:17.808Z,20.37
2018-03-17T19:42:47.379Z,21.37
2018-03-17T19:45:16.087Z,20.07
2018-03-17T19:47:44.655Z,19.10
2018-03-17T19:50:14.177Z,19.55
2018-03-17T19:52:43.616Z,19.62
2018-03-17T19:55:12.283Z,20.10
2018-03-17T19:57:40.866Z,21.37
2018-03-17T20:00:09.330Z,20.77
2018-03-17T20:02:38.009Z,20.10
2018-03-17T20:05:06.247Z,20.57
2018-03-17T20:07:34.907Z,18.47
2018-03-17T20:10:03.259Z,18.83
2018-03-17T20:12:31.647Z,20.90
2018-03-17T20:15:00.307Z,18.12
2018-03-17T20:17:30.938Z,19.73
2018-03-17T20:19:59.199Z,20.20
2018-03-17T20:22:27.863Z,20.25
2018-03-17T20:24:56.206Z,19.20
2018-03-17T20:27:24.594Z,18.60
2018-03-17T20:29:53.382Z,21.73
2018-03-17T20:32:22.878Z,20.83
2018-03-17T20:34:51.545Z,21.40
2018-03-17T20:37:20.593Z,21.10
2018-03-17T20:39:49.351Z,20.50
2018-03-17T20:42:18.137Z,19.62
2018-03-17T20:44:46.912Z,21.00
2018-03-17T20:47:15.330Z,21.93
2018-03-17T20:49:43.739Z,23.27
2018-03-17T20:52:13.327Z,22.30
2018-03-17T20:54:42.028Z,22.20
2018-03-17T20:57:10.686Z,22.77
2018-03-17T20:59:39.346Z,21.90
2018-03-17T21:02:07.900Z,22.53
2018-03-17T21:04:36.685Z,21.27
2018-03-17T21:07:05.521Z,23.37
2018-03-17T21:09:33.941Z,21.20
2018-03-17T21:12:02.321Z,19.70
2018-03-17T21:14:30.719Z,20.87
2018-03-17T21:16:58.907Z,23.17
2018-03-17T21:19:27.463Z,24.07
2018-03-17T21:21:55.857Z,22.97
2018-03-17T21:24:24.578Z,22.83
2018-03-17T21:26:54.110Z,21.77
2018-03-17T21:29:22.823Z,23.38
2018-03-17T21:31:51.303Z,23.67
2018-03-17T21:34:19.967Z,23.02
2018-03-17T21:36:48.644Z,23.67
2018-03-17T21:39:17.979Z,22.60
2018-03-17T21:41:46.367Z,21.07
2018-03-17T21:44:15.031Z,22.65
2018-03-17T21:46:44.446Z,22.70
2018-03-17T21:49:12.934Z,23.97
2018-03-17T21:51:41.347Z,21.77
2018-03-17T21:54:10.778Z,24.20
2018-03-17T21:56:39.166Z,23.13
2018-03-17T21:59:07.564Z,24.60
2018-03-17T22:01:35.962Z,24.07
2018-03-17T22:04:05.432Z,24.60
2018-03-17T22:06:34.078Z,23.03
2018-03-17T22:09:02.990Z,24.33
2018-03-17T22:11:31.974Z,23.90
2018-03-17T22:14:01.422Z,24.42
2018-03-17T22:16:31.010Z,26.00
2018-03-17T22:18:59.590Z,24.93
2018-03-17T22:21:30.046Z,24.63
2018-03-17T22:23:58.713Z,24.87
2018-03-17T22:26:27.894Z,24.63
2018-03-17T22:28:56.572Z,24.27
2018-03-17T22:31:24.973Z,26.50
2018-03-17T22:33:53.638Z,24.87
2018-03-17T22:36:22.312Z,23.60
2018-03-17T22:38:50.725Z,25.03
2018-03-17T22:41:19.888Z,25.60
2018-03-17T22:43:48.282Z,25.23
2018-03-17T22:46:16.768Z,23.77
2018-03-17T22:48:45.441Z,24.10
2018-03-17T22:51:14.059Z,23.40
2018-03-17T22:53:42.613Z,24.43
2018-03-17T22:56:10.997Z,23.33
2018-03-17T22:58:39.475Z,22.97
2018-03-17T23:01:07.935Z,22.40
2018-03-17T23:03:36.606Z,23.73
2018-03-17T23:06:05.018Z,23.40
2018-03-17T23:08:33.686Z,23.70
2018-03-17T23:11:03.100Z,24.77
2018-03-17T23:13:31.607Z,22.60
2018-03-17T23:15:59.994Z,22.27
2018-03-17T23:18:28.578Z,24.33
2018-03-17T23:20:57.235Z,23.83
2018-03-17T23:23:25.818Z,23.20
2018-03-17T23:25:54.207Z,23.10
2018-03-17T23:28:22.694Z,23.80
2018-03-17T23:30:51.361Z,24.30
2018-03-17T23:33:19.792Z,24.07
2018-03-17T23:35:48.455Z,25.50
2018-03-17T23:38:17.134Z,25.07
2018-03-17T23:40:45.610Z,25.52
2018-03-17T23:43:14.102Z,23.90
2018-03-17T23:45:42.445Z,23.97
2018-03-17T23:48:11.539Z,20.77
2018-03-17T23:50:40.105Z,21.90
2018-03-17T23:53:08.401Z,23.93
2018-03-17T23:55:36.904Z,22.60
2018-03-17T23:58:05.383Z,24.75
